sensor_id;sensor_type;location;lat;lon;timestamp;P1;durP1;ratioP1;P2;durP2;ratioP2
78612;SDS011;67933;51.060;3.638;2023-03-05T00:01:29;11.05;;;5.45;;
78612;SDS011;67933;51.060;3.638;2023-03-05T00:03:59;8.82;;;5.00;;
78612;SDS011;67933;51.060;3.638;2023-03-05T00:06:27;8.55;;;4.78;;
78612;SDS011;67933;51.060;3.638;2023-03-05T00:08:53;7.82;;;4.18;;
78612;SDS011;67933;51.060;3.638;2023-03-05T00:11:21;7.53;;;4.40;;
78612;SDS011;67933;51.060;3.638;2023-03-05T00:13:47;7.50;;;5.05;;
78612;SDS011;67933;51.060;3.638;2023-03-05T00:16:15;5.45;;;3.92;;
78612;SDS011;67933;51.060;3.638;2023-03-05T00:18:41;9.00;;;3.85;;
78612;SDS011;67933;51.060;3.638;2023-03-05T00:23:43;8.55;;;4.32;;
78612;SDS011;67933;51.060;3.638;2023-03-05T00:26:09;7.47;;;3.78;;
78612;SDS011;67933;51.060;3.638;2023-03-05T00:28:34;6.80;;;4.22;;
78612;SDS011;67933;51.060;3.638;2023-03-05T00:31:00;7.25;;;4.05;;
78612;SDS011;67933;51.060;3.638;2023-03-05T00:33:25;9.60;;;4.18;;
78612;SDS011;67933;51.060;3.638;2023-03-05T00:35:51;7.70;;;3.55;;
78612;SDS011;67933;51.060;3.638;2023-03-05T00:38:17;8.50;;;4.43;;
78612;SDS011;67933;51.060;3.638;2023-03-05T00:40:42;7.03;;;4.18;;
78612;SDS011;67933;51.060;3.638;2023-03-05T00:43:08;5.05;;;3.97;;
78612;SDS011;67933;51.060;3.638;2023-03-05T00:45:34;9.85;;;5.07;;
78612;SDS011;67933;51.060;3.638;2023-03-05T00:47:59;6.65;;;3.78;;
78612;SDS011;67933;51.060;3.638;2023-03-05T00:50:25;6.68;;;3.72;;
78612;SDS011;67933;51.060;3.638;2023-03-05T00:52:51;16.60;;;4.13;;
78612;SDS011;67933;51.060;3.638;2023-03-05T00:55:16;4.90;;;2.90;;
78612;SDS011;67933;51.060;3.638;2023-03-05T00:57:42;6.50;;;3.25;;
78612;SDS011;67933;51.060;3.638;2023-03-05T01:00:08;5.97;;;3.08;;
78612;SDS011;67933;51.060;3.638;2023-03-05T01:02:34;5.57;;;2.85;;
78612;SDS011;67933;51.060;3.638;2023-03-05T01:04:59;4.95;;;3.05;;
78612;SDS011;67933;51.060;3.638;2023-03-05T01:07:25;5.32;;;3.15;;
78612;SDS011;67933;51.060;3.638;2023-03-05T01:09:50;3.28;;;2.85;;
78612;SDS011;67933;51.060;3.638;2023-03-05T01:12:16;3.40;;;2.20;;
78612;SDS011;67933;51.060;3.638;2023-03-05T01:14:41;3.78;;;2.53;;
78612;SDS011;67933;51.060;3.638;2023-03-05T01:17:07;3.33;;;2.25;;
78612;SDS011;67933;51.060;3.638;2023-03-05T01:19:32;2.45;;;1.90;;
78612;SDS011;67933;51.060;3.638;2023-03-05T01:21:58;3.03;;;1.88;;
78612;SDS011;67933;51.060;3.638;2023-03-05T01:24:23;3.83;;;2.35;;
78612;SDS011;67933;51.060;3.638;2023-03-05T01:26:49;2.58;;;2.28;;
78612;SDS011;67933;51.060;3.638;2023-03-05T01:29:15;4.03;;;2.00;;
78612;SDS011;67933;51.060;3.638;2023-03-05T01:31:40;3.70;;;2.10;;
78612;SDS011;67933;51.060;3.638;2023-03-05T01:34:05;3.33;;;2.45;;
78612;SDS011;67933;51.060;3.638;2023-03-05T01:36:31;3.70;;;2.40;;
78612;SDS011;67933;51.060;3.638;2023-03-05T01:38:57;4.20;;;2.53;;
78612;SDS011;67933;51.060;3.638;2023-03-05T01:41:23;3.67;;;2.63;;
78612;SDS011;67933;51.060;3.638;2023-03-05T01:43:49;5.13;;;3.25;;
78612;SDS011;67933;51.060;3.638;2023-03-05T01:52:07;4.82;;;2.72;;
78612;SDS011;67933;51.060;3.638;2023-03-05T01:55:02;3.25;;;2.28;;
78612;SDS011;67933;51.060;3.638;2023-03-05T01:57:40;4.97;;;3.05;;
78612;SDS011;67933;51.060;3.638;2023-03-05T02:00:14;5.30;;;2.20;;
78612;SDS011;67933;51.060;3.638;2023-03-05T02:02:43;7.88;;;2.95;;
78612;SDS011;67933;51.060;3.638;2023-03-05T02:05:33;4.25;;;2.40;;
78612;SDS011;67933;51.060;3.638;2023-03-05T02:07:59;3.72;;;2.67;;
78612;SDS011;67933;51.060;3.638;2023-03-05T02:10:34;3.50;;;2.25;;
78612;SDS011;67933;51.060;3.638;2023-03-05T02:13:04;5.57;;;2.67;;
78612;SDS011;67933;51.060;3.638;2023-03-05T02:15:33;4.45;;;3.17;;
78612;SDS011;67933;51.060;3.638;2023-03-05T02:17:59;3.72;;;2.58;;
78612;SDS011;67933;51.060;3.638;2023-03-05T02:20:26;5.43;;;3.58;;
78612;SDS011;67933;51.060;3.638;2023-03-05T02:22:53;4.30;;;2.88;;
78612;SDS011;67933;51.060;3.638;2023-03-05T02:28:05;4.75;;;3.00;;
78612;SDS011;67933;51.060;3.638;2023-03-05T02:30:56;4.35;;;2.90;;
78612;SDS011;67933;51.060;3.638;2023-03-05T02:33:21;4.75;;;3.38;;
78612;SDS011;67933;51.060;3.638;2023-03-05T02:35:47;3.97;;;2.70;;
78612;SDS011;67933;51.060;3.638;2023-03-05T02:38:13;3.50;;;2.58;;
78612;SDS011;67933;51.060;3.638;2023-03-05T02:40:41;4.45;;;2.97;;
78612;SDS011;67933;51.060;3.638;2023-03-05T02:43:06;4.32;;;3.00;;
78612;SDS011;67933;51.060;3.638;2023-03-05T02:45:32;5.00;;;3.60;;
78612;SDS011;67933;51.060;3.638;2023-03-05T02:47:57;4.75;;;3.15;;
78612;SDS011;67933;51.060;3.638;2023-03-05T02:50:22;6.70;;;3.95;;
78612;SDS011;67933;51.060;3.638;2023-03-05T02:52:48;7.00;;;3.72;;
78612;SDS011;67933;51.060;3.638;2023-03-05T02:55:14;6.22;;;4.05;;
78612;SDS011;67933;51.060;3.638;2023-03-05T02:57:39;5.53;;;3.60;;
78612;SDS011;67933;51.060;3.638;2023-03-05T03:00:05;12.32;;;5.07;;
78612;SDS011;67933;51.060;3.638;2023-03-05T03:02:31;6.10;;;4.05;;
78612;SDS011;67933;51.060;3.638;2023-03-05T03:04:57;6.57;;;4.05;;
78612;SDS011;67933;51.060;3.638;2023-03-05T03:07:22;10.88;;;6.32;;
78612;SDS011;67933;51.060;3.638;2023-03-05T03:09:48;9.90;;;5.68;;
78612;SDS011;67933;51.060;3.638;2023-03-05T03:12:13;7.03;;;4.88;;
78612;SDS011;67933;51.060;3.638;2023-03-05T03:14:39;12.18;;;6.63;;
78612;SDS011;67933;51.060;3.638;2023-03-05T03:17:14;11.63;;;5.75;;
78612;SDS011;67933;51.060;3.638;2023-03-05T03:19:41;6.38;;;4.60;;
78612;SDS011;67933;51.060;3.638;2023-03-05T03:22:08;9.98;;;5.80;;
78612;SDS011;67933;51.060;3.638;2023-03-05T03:24:35;9.95;;;5.72;;
78612;SDS011;67933;51.060;3.638;2023-03-05T03:27:02;9.88;;;5.15;;
78612;SDS011;67933;51.060;3.638;2023-03-05T03:29:28;11.00;;;5.80;;
78612;SDS011;67933;51.060;3.638;2023-03-05T03:31:54;8.65;;;5.85;;
78612;SDS011;67933;51.060;3.638;2023-03-05T03:34:19;10.02;;;5.07;;
78612;SDS011;67933;51.060;3.638;2023-03-05T03:36:46;9.52;;;5.30;;
78612;SDS011;67933;51.060;3.638;2023-03-05T03:39:14;9.27;;;5.57;;
78612;SDS011;67933;51.060;3.638;2023-03-05T03:41:41;10.77;;;5.68;;
78612;SDS011;67933;51.060;3.638;2023-03-05T03:44:07;9.48;;;5.88;;
78612;SDS011;67933;51.060;3.638;2023-03-05T03:46:34;8.60;;;5.45;;
78612;SDS011;67933;51.060;3.638;2023-03-05T03:49:01;8.32;;;5.35;;
78612;SDS011;67933;51.060;3.638;2023-03-05T03:51:26;10.10;;;5.43;;
78612;SDS011;67933;51.060;3.638;2023-03-05T03:53:52;8.45;;;6.00;;
78612;SDS011;67933;51.060;3.638;2023-03-05T03:56:17;10.77;;;7.00;;
78612;SDS011;67933;51.060;3.638;2023-03-05T03:58:43;9.20;;;5.63;;
78612;SDS011;67933;51.060;3.638;2023-03-05T04:01:08;10.05;;;5.78;;
78612;SDS011;67933;51.060;3.638;2023-03-05T04:03:34;10.20;;;6.18;;
78612;SDS011;67933;51.060;3.638;2023-03-05T04:05:59;10.93;;;6.35;;
78612;SDS011;67933;51.060;3.638;2023-03-05T04:08:25;9.35;;;5.80;;
78612;SDS011;67933;51.060;3.638;2023-03-05T04:10:50;8.85;;;5.63;;
78612;SDS011;67933;51.060;3.638;2023-03-05T04:13:16;9.60;;;6.10;;
78612;SDS011;67933;51.060;3.638;2023-03-05T04:15:41;12.25;;;6.80;;
78612;SDS011;67933;51.060;3.638;2023-03-05T04:18:08;10.07;;;6.43;;
78612;SDS011;67933;51.060;3.638;2023-03-05T04:20:34;13.50;;;6.13;;
78612;SDS011;67933;51.060;3.638;2023-03-05T04:22:59;9.18;;;5.15;;
78612;SDS011;67933;51.060;3.638;2023-03-05T04:25:24;8.70;;;5.88;;
78612;SDS011;67933;51.060;3.638;2023-03-05T04:27:50;10.40;;;6.05;;
78612;SDS011;67933;51.060;3.638;2023-03-05T04:30:15;10.90;;;5.95;;
78612;SDS011;67933;51.060;3.638;2023-03-05T04:32:41;12.07;;;7.07;;
78612;SDS011;67933;51.060;3.638;2023-03-05T04:35:07;8.77;;;5.95;;
78612;SDS011;67933;51.060;3.638;2023-03-05T04:37:33;13.30;;;6.28;;
78612;SDS011;67933;51.060;3.638;2023-03-05T04:39:58;8.40;;;5.60;;
78612;SDS011;67933;51.060;3.638;2023-03-05T04:42:24;13.05;;;6.57;;
78612;SDS011;67933;51.060;3.638;2023-03-05T04:44:49;10.73;;;6.55;;
78612;SDS011;67933;51.060;3.638;2023-03-05T04:47:15;9.85;;;5.90;;
78612;SDS011;67933;51.060;3.638;2023-03-05T04:49:41;12.27;;;6.85;;
78612;SDS011;67933;51.060;3.638;2023-03-05T04:52:07;13.57;;;7.53;;
78612;SDS011;67933;51.060;3.638;2023-03-05T04:54:34;10.70;;;6.82;;
78612;SDS011;67933;51.060;3.638;2023-03-05T04:56:59;11.45;;;6.40;;
78612;SDS011;67933;51.060;3.638;2023-03-05T04:59:25;14.93;;;7.22;;
78612;SDS011;67933;51.060;3.638;2023-03-05T05:01:50;13.32;;;6.85;;
78612;SDS011;67933;51.060;3.638;2023-03-05T05:04:15;11.70;;;6.75;;
78612;SDS011;67933;51.060;3.638;2023-03-05T05:06:41;13.25;;;7.15;;
78612;SDS011;67933;51.060;3.638;2023-03-05T05:09:06;17.35;;;7.60;;
78612;SDS011;67933;51.060;3.638;2023-03-05T05:11:32;14.90;;;7.80;;
78612;SDS011;67933;51.060;3.638;2023-03-05T05:13:57;16.42;;;7.15;;
78612;SDS011;67933;51.060;3.638;2023-03-05T05:16:22;12.75;;;7.68;;
78612;SDS011;67933;51.060;3.638;2023-03-05T05:18:48;12.25;;;6.90;;
78612;SDS011;67933;51.060;3.638;2023-03-05T05:21:14;13.27;;;6.82;;
78612;SDS011;67933;51.060;3.638;2023-03-05T05:23:39;11.05;;;6.55;;
78612;SDS011;67933;51.060;3.638;2023-03-05T05:26:06;13.63;;;7.95;;
78612;SDS011;67933;51.060;3.638;2023-03-05T05:28:33;10.80;;;7.25;;
78612;SDS011;67933;51.060;3.638;2023-03-05T05:30:59;13.15;;;6.63;;
78612;SDS011;67933;51.060;3.638;2023-03-05T05:33:30;14.02;;;7.25;;
78612;SDS011;67933;51.060;3.638;2023-03-05T05:35:56;12.75;;;8.20;;
78612;SDS011;67933;51.060;3.638;2023-03-05T05:38:21;14.48;;;8.25;;
78612;SDS011;67933;51.060;3.638;2023-03-05T05:40:47;14.80;;;8.07;;
78612;SDS011;67933;51.060;3.638;2023-03-05T05:43:12;15.07;;;8.77;;
78612;SDS011;67933;51.060;3.638;2023-03-05T05:45:38;13.50;;;8.43;;
78612;SDS011;67933;51.060;3.638;2023-03-05T05:48:03;10.48;;;6.63;;
78612;SDS011;67933;51.060;3.638;2023-03-05T05:50:29;10.00;;;5.68;;
78612;SDS011;67933;51.060;3.638;2023-03-05T05:52:54;8.15;;;4.68;;
78612;SDS011;67933;51.060;3.638;2023-03-05T05:55:20;4.60;;;2.78;;
78612;SDS011;67933;51.060;3.638;2023-03-05T05:57:45;5.32;;;2.63;;
78612;SDS011;67933;51.060;3.638;2023-03-05T06:00:12;4.47;;;2.30;;
78612;SDS011;67933;51.060;3.638;2023-03-05T06:02:41;3.10;;;1.85;;
78612;SDS011;67933;51.060;3.638;2023-03-05T06:05:07;3.53;;;1.80;;
78612;SDS011;67933;51.060;3.638;2023-03-05T06:07:36;2.50;;;1.55;;
78612;SDS011;67933;51.060;3.638;2023-03-05T06:10:02;2.78;;;1.80;;
78612;SDS011;67933;51.060;3.638;2023-03-05T06:12:27;2.25;;;1.20;;
78612;SDS011;67933;51.060;3.638;2023-03-05T06:14:53;2.63;;;1.48;;
78612;SDS011;67933;51.060;3.638;2023-03-05T06:17:18;2.22;;;1.55;;
78612;SDS011;67933;51.060;3.638;2023-03-05T06:19:44;1.70;;;1.45;;
78612;SDS011;67933;51.060;3.638;2023-03-05T06:22:10;2.53;;;1.60;;
78612;SDS011;67933;51.060;3.638;2023-03-05T06:24:36;2.70;;;1.40;;
78612;SDS011;67933;51.060;3.638;2023-03-05T06:27:02;3.67;;;1.70;;
78612;SDS011;67933;51.060;3.638;2023-03-05T06:29:29;3.38;;;1.65;;
78612;SDS011;67933;51.060;3.638;2023-03-05T06:31:55;2.40;;;1.50;;
78612;SDS011;67933;51.060;3.638;2023-03-05T06:34:21;2.70;;;1.30;;
78612;SDS011;67933;51.060;3.638;2023-03-05T06:36:47;3.35;;;1.60;;
78612;SDS011;67933;51.060;3.638;2023-03-05T06:39:12;3.28;;;1.45;;
78612;SDS011;67933;51.060;3.638;2023-03-05T06:41:38;1.92;;;1.33;;
78612;SDS011;67933;51.060;3.638;2023-03-05T06:44:03;1.63;;;1.40;;
78612;SDS011;67933;51.060;3.638;2023-03-05T06:46:30;3.08;;;1.80;;
78612;SDS011;67933;51.060;3.638;2023-03-05T06:48:58;2.40;;;1.85;;
78612;SDS011;67933;51.060;3.638;2023-03-05T06:53:52;2.50;;;1.80;;
78612;SDS011;67933;51.060;3.638;2023-03-05T06:56:18;3.42;;;1.80;;
78612;SDS011;67933;51.060;3.638;2023-03-05T06:58:45;2.72;;;2.00;;
78612;SDS011;67933;51.060;3.638;2023-03-05T07:01:13;4.55;;;1.75;;
78612;SDS011;67933;51.060;3.638;2023-03-05T07:03:39;2.53;;;1.75;;
78612;SDS011;67933;51.060;3.638;2023-03-05T07:06:06;3.25;;;1.90;;
78612;SDS011;67933;51.060;3.638;2023-03-05T07:08:34;3.72;;;2.60;;
78612;SDS011;67933;51.060;3.638;2023-03-05T07:11:00;3.72;;;2.25;;
78612;SDS011;67933;51.060;3.638;2023-03-05T07:13:26;4.38;;;2.20;;
78612;SDS011;67933;51.060;3.638;2023-03-05T07:15:52;4.43;;;2.55;;
78612;SDS011;67933;51.060;3.638;2023-03-05T07:18:17;3.65;;;2.50;;
78612;SDS011;67933;51.060;3.638;2023-03-05T07:20:43;5.35;;;2.50;;
78612;SDS011;67933;51.060;3.638;2023-03-05T07:23:08;5.72;;;3.25;;
78612;SDS011;67933;51.060;3.638;2023-03-05T07:25:37;5.63;;;3.10;;
78612;SDS011;67933;51.060;3.638;2023-03-05T07:28:05;5.13;;;3.42;;
78612;SDS011;67933;51.060;3.638;2023-03-05T07:30:34;5.55;;;3.47;;
78612;SDS011;67933;51.060;3.638;2023-03-05T07:32:59;6.63;;;4.20;;
78612;SDS011;67933;51.060;3.638;2023-03-05T07:35:24;5.57;;;3.88;;
78612;SDS011;67933;51.060;3.638;2023-03-05T07:37:50;5.63;;;3.80;;
78612;SDS011;67933;51.060;3.638;2023-03-05T07:40:16;6.40;;;3.88;;
78612;SDS011;67933;51.060;3.638;2023-03-05T07:42:41;6.70;;;3.95;;
78612;SDS011;67933;51.060;3.638;2023-03-05T07:45:07;6.70;;;3.80;;
78612;SDS011;67933;51.060;3.638;2023-03-05T07:47:33;7.25;;;3.70;;
78612;SDS011;67933;51.060;3.638;2023-03-05T07:49:58;5.63;;;3.60;;
78612;SDS011;67933;51.060;3.638;2023-03-05T07:52:24;5.13;;;3.60;;
78612;SDS011;67933;51.060;3.638;2023-03-05T07:54:49;5.72;;;3.75;;
78612;SDS011;67933;51.060;3.638;2023-03-05T07:57:15;4.72;;;3.30;;
78612;SDS011;67933;51.060;3.638;2023-03-05T07:59:40;4.88;;;3.45;;
78612;SDS011;67933;51.060;3.638;2023-03-05T08:02:08;5.40;;;2.90;;
78612;SDS011;67933;51.060;3.638;2023-03-05T08:04:35;4.47;;;3.17;;
78612;SDS011;67933;51.060;3.638;2023-03-05T08:07:01;6.85;;;3.63;;
78612;SDS011;67933;51.060;3.638;2023-03-05T08:09:26;6.75;;;4.35;;
78612;SDS011;67933;51.060;3.638;2023-03-05T08:11:52;7.10;;;3.35;;
78612;SDS011;67933;51.060;3.638;2023-03-05T08:14:17;4.68;;;3.40;;
78612;SDS011;67933;51.060;3.638;2023-03-05T08:16:43;4.85;;;3.20;;
78612;SDS011;67933;51.060;3.638;2023-03-05T08:19:08;5.72;;;2.78;;
78612;SDS011;67933;51.060;3.638;2023-03-05T08:21:34;5.32;;;3.22;;
78612;SDS011;67933;51.060;3.638;2023-03-05T08:24:01;6.18;;;3.50;;
78612;SDS011;67933;51.060;3.638;2023-03-05T08:26:29;4.88;;;3.00;;
78612;SDS011;67933;51.060;3.638;2023-03-05T08:28:56;10.52;;;6.15;;
78612;SDS011;67933;51.060;3.638;2023-03-05T08:31:22;5.10;;;3.35;;
78612;SDS011;67933;51.060;3.638;2023-03-05T08:33:49;4.38;;;2.60;;
78612;SDS011;67933;51.060;3.638;2023-03-05T08:36:17;3.92;;;2.53;;
78612;SDS011;67933;51.060;3.638;2023-03-05T08:38:42;3.20;;;2.10;;
78612;SDS011;67933;51.060;3.638;2023-03-05T08:41:10;3.42;;;1.83;;
78612;SDS011;67933;51.060;3.638;2023-03-05T08:43:36;3.25;;;2.30;;
78612;SDS011;67933;51.060;3.638;2023-03-05T08:46:02;2.38;;;1.88;;
78612;SDS011;67933;51.060;3.638;2023-03-05T08:48:28;3.78;;;1.92;;
78612;SDS011;67933;51.060;3.638;2023-03-05T08:50:55;3.10;;;2.10;;
78612;SDS011;67933;51.060;3.638;2023-03-05T08:53:21;2.55;;;1.85;;
78612;SDS011;67933;51.060;3.638;2023-03-05T08:55:53;2.75;;;1.90;;
78612;SDS011;67933;51.060;3.638;2023-03-05T08:58:19;6.00;;;3.83;;
78612;SDS011;67933;51.060;3.638;2023-03-05T09:00:45;3.83;;;2.95;;
78612;SDS011;67933;51.060;3.638;2023-03-05T09:03:10;1.88;;;1.63;;
78612;SDS011;67933;51.060;3.638;2023-03-05T09:05:35;3.15;;;1.83;;
78612;SDS011;67933;51.060;3.638;2023-03-05T09:08:01;3.22;;;2.13;;
78612;SDS011;67933;51.060;3.638;2023-03-05T09:10:28;5.80;;;2.65;;
78612;SDS011;67933;51.060;3.638;2023-03-05T09:12:53;8.43;;;6.53;;
78612;SDS011;67933;51.060;3.638;2023-03-05T09:15:18;2.42;;;1.80;;
78612;SDS011;67933;51.060;3.638;2023-03-05T09:17:44;3.90;;;2.83;;
78612;SDS011;67933;51.060;3.638;2023-03-05T09:20:10;6.32;;;5.72;;
78612;SDS011;67933;51.060;3.638;2023-03-05T09:22:37;2.42;;;2.00;;
78612;SDS011;67933;51.060;3.638;2023-03-05T09:25:02;3.70;;;2.63;;
78612;SDS011;67933;51.060;3.638;2023-03-05T09:27:31;3.10;;;2.20;;
78612;SDS011;67933;51.060;3.638;2023-03-05T09:29:58;5.32;;;4.25;;
78612;SDS011;67933;51.060;3.638;2023-03-05T09:32:23;1.90;;;0.90;;
78612;SDS011;67933;51.060;3.638;2023-03-05T09:34:48;2.45;;;1.10;;
78612;SDS011;67933;51.060;3.638;2023-03-05T09:37:15;2.22;;;1.30;;
78612;SDS011;67933;51.060;3.638;2023-03-05T09:39:40;2.15;;;1.88;;
78612;SDS011;67933;51.060;3.638;2023-03-05T09:50:52;2.22;;;1.70;;
78612;SDS011;67933;51.060;3.638;2023-03-05T09:53:30;3.55;;;1.80;;
78612;SDS011;67933;51.060;3.638;2023-03-05T09:55:58;2.17;;;1.42;;
78612;SDS011;67933;51.060;3.638;2023-03-05T09:58:36;1.90;;;1.10;;
78612;SDS011;67933;51.060;3.638;2023-03-05T10:01:08;1.15;;;1.02;;
78612;SDS011;67933;51.060;3.638;2023-03-05T10:12:02;3.50;;;1.85;;
78612;SDS011;67933;51.060;3.638;2023-03-05T10:14:35;2.72;;;1.23;;
78612;SDS011;67933;51.060;3.638;2023-03-05T10:27:50;1.98;;;1.05;;
78612;SDS011;67933;51.060;3.638;2023-03-05T10:33:10;1.95;;;0.80;;
78612;SDS011;67933;51.060;3.638;2023-03-05T10:35:58;3.22;;;0.60;;
78612;SDS011;67933;51.060;3.638;2023-03-05T10:41:49;1.35;;;0.80;;
78612;SDS011;67933;51.060;3.638;2023-03-05T10:44:31;1.48;;;0.90;;
78612;SDS011;67933;51.060;3.638;2023-03-05T10:50:13;1.10;;;0.82;;
78612;SDS011;67933;51.060;3.638;2023-03-05T10:52:45;1.85;;;0.73;;
78612;SDS011;67933;51.060;3.638;2023-03-05T10:55:18;0.75;;;0.73;;
78612;SDS011;67933;51.060;3.638;2023-03-05T10:57:44;1.52;;;0.85;;
78612;SDS011;67933;51.060;3.638;2023-03-05T11:02:57;1.00;;;0.82;;
78612;SDS011;67933;51.060;3.638;2023-03-05T11:05:40;1.13;;;0.68;;
78612;SDS011;67933;51.060;3.638;2023-03-05T11:13:32;1.30;;;0.60;;
78612;SDS011;67933;51.060;3.638;2023-03-05T11:16:05;1.05;;;0.40;;
78612;SDS011;67933;51.060;3.638;2023-03-05T11:18:32;1.10;;;0.50;;
78612;SDS011;67933;51.060;3.638;2023-03-05T11:24:04;1.15;;;0.63;;
78612;SDS011;67933;51.060;3.638;2023-03-05T11:26:34;1.58;;;0.55;;
78612;SDS011;67933;51.060;3.638;2023-03-05T11:29:00;2.20;;;0.70;;
78612;SDS011;67933;51.060;3.638;2023-03-05T11:31:29;2.55;;;0.70;;
78612;SDS011;67933;51.060;3.638;2023-03-05T11:36:34;3.33;;;0.88;;
78612;SDS011;67933;51.060;3.638;2023-03-05T11:44:02;0.43;;;0.35;;
78612;SDS011;67933;51.060;3.638;2023-03-05T11:46:36;0.30;;;0.30;;
78612;SDS011;67933;51.060;3.638;2023-03-05T11:49:06;1.98;;;0.70;;
78612;SDS011;67933;51.060;3.638;2023-03-05T11:51:43;1.75;;;0.70;;
78612;SDS011;67933;51.060;3.638;2023-03-05T11:54:21;1.20;;;0.90;;
78612;SDS011;67933;51.060;3.638;2023-03-05T11:56:52;1.40;;;0.85;;
78612;SDS011;67933;51.060;3.638;2023-03-05T11:59:18;0.73;;;0.47;;
78612;SDS011;67933;51.060;3.638;2023-03-05T12:01:58;2.80;;;1.40;;
78612;SDS011;67933;51.060;3.638;2023-03-05T12:04:24;1.23;;;1.00;;
78612;SDS011;67933;51.060;3.638;2023-03-05T12:06:50;1.13;;;0.88;;
78612;SDS011;67933;51.060;3.638;2023-03-05T12:09:25;1.98;;;1.10;;
78612;SDS011;67933;51.060;3.638;2023-03-05T12:14:44;1.05;;;0.50;;
78612;SDS011;67933;51.060;3.638;2023-03-05T12:17:24;0.98;;;0.32;;
78612;SDS011;67933;51.060;3.638;2023-03-05T12:19:57;0.43;;;0.30;;
78612;SDS011;67933;51.060;3.638;2023-03-05T12:22:33;0.73;;;0.50;;
78612;SDS011;67933;51.060;3.638;2023-03-05T12:30:53;2.35;;;1.20;;
78612;SDS011;67933;51.060;3.638;2023-03-05T12:38:49;1.58;;;0.60;;
78612;SDS011;67933;51.060;3.638;2023-03-05T12:51:48;1.08;;;0.60;;
78612;SDS011;67933;51.060;3.638;2023-03-05T12:54:36;2.75;;;0.60;;
78612;SDS011;67933;51.060;3.638;2023-03-05T12:57:19;1.23;;;0.80;;
78612;SDS011;67933;51.060;3.638;2023-03-05T12:59:49;1.25;;;0.90;;
78612;SDS011;67933;51.060;3.638;2023-03-05T13:02:33;1.42;;;0.95;;
78612;SDS011;67933;51.060;3.638;2023-03-05T13:05:07;2.05;;;0.80;;
78612;SDS011;67933;51.060;3.638;2023-03-05T13:07:43;1.95;;;0.90;;
78612;SDS011;67933;51.060;3.638;2023-03-05T13:10:25;0.95;;;0.52;;
78612;SDS011;67933;51.060;3.638;2023-03-05T13:12:53;2.22;;;1.00;;
78612;SDS011;67933;51.060;3.638;2023-03-05T13:15:21;2.90;;;1.05;;
78612;SDS011;67933;51.060;3.638;2023-03-05T13:25:28;1.48;;;1.15;;
78612;SDS011;67933;51.060;3.638;2023-03-05T13:28:01;1.50;;;0.88;;
78612;SDS011;67933;51.060;3.638;2023-03-05T13:30:31;1.23;;;0.70;;
78612;SDS011;67933;51.060;3.638;2023-03-05T13:33:00;0.95;;;0.60;;
78612;SDS011;67933;51.060;3.638;2023-03-05T13:35:28;2.03;;;0.80;;
78612;SDS011;67933;51.060;3.638;2023-03-05T13:37:54;1.60;;;0.80;;
78612;SDS011;67933;51.060;3.638;2023-03-05T13:40:22;1.45;;;0.80;;
78612;SDS011;67933;51.060;3.638;2023-03-05T13:42:50;3.63;;;1.00;;
78612;SDS011;67933;51.060;3.638;2023-03-05T13:45:27;1.60;;;0.93;;
78612;SDS011;67933;51.060;3.638;2023-03-05T13:47:55;2.58;;;0.82;;
78612;SDS011;67933;51.060;3.638;2023-03-05T13:50:27;1.73;;;0.70;;
78612;SDS011;67933;51.060;3.638;2023-03-05T13:52:55;1.60;;;1.00;;
78612;SDS011;67933;51.060;3.638;2023-03-05T13:55:37;2.58;;;0.98;;
78612;SDS011;67933;51.060;3.638;2023-03-05T13:58:02;2.38;;;1.33;;
78612;SDS011;67933;51.060;3.638;2023-03-05T14:00:32;3.92;;;1.27;;
78612;SDS011;67933;51.060;3.638;2023-03-05T14:03:15;3.38;;;1.40;;
78612;SDS011;67933;51.060;3.638;2023-03-05T14:05:46;2.17;;;1.35;;
78612;SDS011;67933;51.060;3.638;2023-03-05T14:08:17;2.47;;;1.60;;
78612;SDS011;67933;51.060;3.638;2023-03-05T14:10:45;2.88;;;1.63;;
78612;SDS011;67933;51.060;3.638;2023-03-05T14:13:12;3.10;;;1.67;;
78612;SDS011;67933;51.060;3.638;2023-03-05T14:15:43;3.13;;;1.70;;
78612;SDS011;67933;51.060;3.638;2023-03-05T14:18:34;4.18;;;1.48;;
78612;SDS011;67933;51.060;3.638;2023-03-05T14:21:07;3.70;;;2.03;;
78612;SDS011;67933;51.060;3.638;2023-03-05T14:23:39;4.10;;;2.13;;
78612;SDS011;67933;51.060;3.638;2023-03-05T14:29:14;5.05;;;1.73;;
78612;SDS011;67933;51.060;3.638;2023-03-05T14:34:31;2.70;;;1.70;;
78612;SDS011;67933;51.060;3.638;2023-03-05T14:37:03;4.20;;;2.20;;
78612;SDS011;67933;51.060;3.638;2023-03-05T14:39:36;3.15;;;1.90;;
78612;SDS011;67933;51.060;3.638;2023-03-05T14:42:12;6.80;;;3.28;;
78612;SDS011;67933;51.060;3.638;2023-03-05T14:44:39;6.95;;;3.03;;
78612;SDS011;67933;51.060;3.638;2023-03-05T14:47:04;7.63;;;3.88;;
78612;SDS011;67933;51.060;3.638;2023-03-05T14:49:31;5.97;;;3.78;;
78612;SDS011;67933;51.060;3.638;2023-03-05T14:51:56;6.88;;;3.90;;
78612;SDS011;67933;51.060;3.638;2023-03-05T14:54:23;4.65;;;3.45;;
78612;SDS011;67933;51.060;3.638;2023-03-05T14:56:50;8.10;;;3.83;;
78612;SDS011;67933;51.060;3.638;2023-03-05T14:59:16;7.63;;;4.25;;
78612;SDS011;67933;51.060;3.638;2023-03-05T15:01:42;9.35;;;4.40;;
78612;SDS011;67933;51.060;3.638;2023-03-05T15:04:09;5.70;;;3.80;;
78612;SDS011;67933;51.060;3.638;2023-03-05T15:06:35;5.25;;;2.92;;
78612;SDS011;67933;51.060;3.638;2023-03-05T15:09:04;4.80;;;3.17;;
78612;SDS011;67933;51.060;3.638;2023-03-05T15:11:31;6.22;;;3.25;;
78612;SDS011;67933;51.060;3.638;2023-03-05T15:13:57;5.03;;;3.40;;
78612;SDS011;67933;51.060;3.638;2023-03-05T15:16:23;7.00;;;3.38;;
78612;SDS011;67933;51.060;3.638;2023-03-05T15:18:48;4.97;;;2.72;;
78612;SDS011;67933;51.060;3.638;2023-03-05T15:21:14;9.70;;;3.83;;
78612;SDS011;67933;51.060;3.638;2023-03-05T15:23:39;6.47;;;3.30;;
78612;SDS011;67933;51.060;3.638;2023-03-05T15:26:06;6.97;;;3.38;;
78612;SDS011;67933;51.060;3.638;2023-03-05T15:28:34;5.85;;;3.30;;
78612;SDS011;67933;51.060;3.638;2023-03-05T15:31:02;4.75;;;3.08;;
78612;SDS011;67933;51.060;3.638;2023-03-05T15:33:28;5.88;;;3.60;;
78612;SDS011;67933;51.060;3.638;2023-03-05T15:35:54;5.18;;;3.22;;
78612;SDS011;67933;51.060;3.638;2023-03-05T15:38:20;5.47;;;3.03;;
78612;SDS011;67933;51.060;3.638;2023-03-05T15:40:48;6.75;;;3.40;;
78612;SDS011;67933;51.060;3.638;2023-03-05T15:43:13;9.13;;;4.70;;
78612;SDS011;67933;51.060;3.638;2023-03-05T15:45:39;6.25;;;3.33;;
78612;SDS011;67933;51.060;3.638;2023-03-05T15:48:05;7.50;;;3.90;;
78612;SDS011;67933;51.060;3.638;2023-03-05T15:50:30;5.75;;;3.58;;
78612;SDS011;67933;51.060;3.638;2023-03-05T15:52:56;7.25;;;3.28;;
78612;SDS011;67933;51.060;3.638;2023-03-05T15:55:22;7.28;;;4.00;;
78612;SDS011;67933;51.060;3.638;2023-03-05T15:57:48;8.00;;;4.35;;
78612;SDS011;67933;51.060;3.638;2023-03-05T16:00:16;7.28;;;3.78;;
78612;SDS011;67933;51.060;3.638;2023-03-05T16:02:44;5.25;;;3.40;;
78612;SDS011;67933;51.060;3.638;2023-03-05T16:05:10;5.57;;;3.38;;
78612;SDS011;67933;51.060;3.638;2023-03-05T16:07:38;7.00;;;3.50;;
78612;SDS011;67933;51.060;3.638;2023-03-05T16:10:06;6.50;;;3.97;;
78612;SDS011;67933;51.060;3.638;2023-03-05T16:12:36;6.53;;;3.80;;
78612;SDS011;67933;51.060;3.638;2023-03-05T16:15:08;7.00;;;4.20;;
78612;SDS011;67933;51.060;3.638;2023-03-05T16:17:37;8.57;;;4.35;;
78612;SDS011;67933;51.060;3.638;2023-03-05T16:20:05;8.93;;;5.10;;
78612;SDS011;67933;51.060;3.638;2023-03-05T16:22:32;10.40;;;4.95;;
78612;SDS011;67933;51.060;3.638;2023-03-05T16:24:58;8.70;;;4.45;;
78612;SDS011;67933;51.060;3.638;2023-03-05T16:27:25;8.98;;;4.55;;
78612;SDS011;67933;51.060;3.638;2023-03-05T16:29:51;8.07;;;5.00;;
78612;SDS011;67933;51.060;3.638;2023-03-05T16:32:16;7.38;;;4.22;;
78612;SDS011;67933;51.060;3.638;2023-03-05T16:34:42;7.85;;;4.93;;
78612;SDS011;67933;51.060;3.638;2023-03-05T16:37:07;8.00;;;4.82;;